createdAt,value
2019-04-06T00:00:52.507Z,20.68
2019-04-06T00:01:52.504Z,20.60
2019-04-06T00:02:52.495Z,20.58
2019-04-06T00:03:52.521Z,20.60
2019-04-06T00:04:52.480Z,20.58
2019-04-06T00:05:52.503Z,20.56
2019-04-06T00:06:52.490Z,20.57
2019-04-06T00:07:52.486Z,20.54
2019-04-06T00:08:52.477Z,20.61
2019-04-06T00:09:52.473Z,20.61
2019-04-06T00:10:52.461Z,20.63
2019-04-06T00:11:52.458Z,20.54
2019-04-06T00:12:52.449Z,20.66
2019-04-06T00:13:52.442Z,20.58
2019-04-06T00:14:52.436Z,20.63
2019-04-06T00:15:52.431Z,20.65
2019-04-06T00:16:52.423Z,20.61
2019-04-06T00:17:52.417Z,20.54
2019-04-06T00:18:52.409Z,20.65
2019-04-06T00:19:52.401Z,20.58
2019-04-06T00:20:52.396Z,20.61
2019-04-06T00:21:52.390Z,20.57
2019-04-06T00:22:52.383Z,20.58
2019-04-06T00:23:52.376Z,20.53
2019-04-06T00:24:52.370Z,20.60
2019-04-06T00:25:52.366Z,20.58
2019-04-06T00:26:52.355Z,20.61
2019-04-06T00:27:52.350Z,20.57
2019-04-06T00:28:52.347Z,20.57
2019-04-06T00:29:52.337Z,20.51
2019-04-06T00:30:52.331Z,20.54
2019-04-06T00:31:52.323Z,20.63
2019-04-06T00:32:52.316Z,20.63
2019-04-06T00:33:52.308Z,20.61
2019-04-06T00:34:52.301Z,20.58
2019-04-06T00:35:52.294Z,20.54
2019-04-06T00:36:52.287Z,20.60
2019-04-06T00:37:52.281Z,20.61
2019-04-06T00:38:52.275Z,20.63
2019-04-06T00:39:52.285Z,20.54
2019-04-06T00:40:52.260Z,20.60
2019-04-06T00:41:52.255Z,20.60
2019-04-06T00:42:52.250Z,20.58
2019-04-06T00:43:52.243Z,20.50
2019-04-06T00:44:52.263Z,20.57
2019-04-06T00:45:52.248Z,20.53
2019-04-06T00:46:52.241Z,20.63
2019-04-06T00:47:52.252Z,20.57
2019-04-06T00:48:52.231Z,20.60
2019-04-06T00:49:52.217Z,20.56
2019-04-06T00:50:52.306Z,20.60
2019-04-06T00:51:52.207Z,20.56
2019-04-06T00:52:52.204Z,20.51
2019-04-06T00:53:52.198Z,20.54
2019-04-06T00:54:52.187Z,20.46
2019-04-06T00:55:55.768Z,20.54
2019-04-06T00:56:52.177Z,20.56
2019-04-06T00:57:52.176Z,20.50
2019-04-06T00:58:52.161Z,20.53
2019-04-06T00:59:52.156Z,20.47
2019-04-06T01:00:52.151Z,20.51
2019-04-06T01:01:52.143Z,20.51
2019-04-06T01:02:52.135Z,20.57
2019-04-06T01:03:52.129Z,20.57
2019-04-06T01:04:52.121Z,20.46
2019-04-06T01:05:52.116Z,20.49
2019-04-06T01:06:52.109Z,20.49
2019-04-06T01:07:52.106Z,20.50
2019-04-06T01:08:52.095Z,20.53
2019-04-06T01:09:52.094Z,20.51
2019-04-06T01:10:52.079Z,20.43
2019-04-06T01:11:52.079Z,20.46
2019-04-06T01:12:52.064Z,20.47
2019-04-06T01:13:52.059Z,20.49
2019-04-06T01:14:52.049Z,20.57
2019-04-06T01:15:52.064Z,20.49
2019-04-06T01:16:52.039Z,20.47
2019-04-06T01:17:52.032Z,20.53
2019-04-06T01:18:52.024Z,20.50
2019-04-06T01:19:52.020Z,20.54
2019-04-06T01:20:52.011Z,20.53
2019-04-06T01:21:52.004Z,20.50
2019-04-06T01:22:51.999Z,20.50
2019-04-06T01:23:51.992Z,20.54
2019-04-06T01:24:52.050Z,20.53
2019-04-06T01:25:51.978Z,20.46
2019-04-06T01:26:51.974Z,20.47
2019-04-06T01:27:51.964Z,20.47
2019-04-06T01:28:51.962Z,20.51
2019-04-06T01:29:51.953Z,20.47
2019-04-06T01:30:51.947Z,20.46
2019-04-06T01:31:51.939Z,20.50
2019-04-06T01:32:51.933Z,20.54
2019-04-06T01:33:51.924Z,20.49
2019-04-06T01:34:51.915Z,20.51
2019-04-06T01:35:51.910Z,20.49
2019-04-06T01:36:51.903Z,20.51
2019-04-06T01:37:51.899Z,20.47
2019-04-06T01:38:51.891Z,20.54
2019-04-06T01:39:51.884Z,20.43
2019-04-06T01:40:51.876Z,20.50
2019-04-06T01:41:51.870Z,20.41
2019-04-06T01:42:51.864Z,20.43
2019-04-06T01:43:51.855Z,20.39
2019-04-06T01:44:51.848Z,20.41
2019-04-06T01:45:51.844Z,20.53
2019-04-06T01:46:51.835Z,20.49
2019-04-06T01:47:51.828Z,20.49
2019-04-06T01:48:51.828Z,20.50
2019-04-06T01:49:51.814Z,20.41
2019-04-06T01:50:51.806Z,20.39
2019-04-06T01:51:51.823Z,20.46
2019-04-06T01:52:51.817Z,20.43
2019-04-06T01:53:51.843Z,20.42
2019-04-06T01:54:51.812Z,20.49
2019-04-06T01:55:51.797Z,20.46
2019-04-06T01:56:51.790Z,20.49
2019-04-06T01:57:51.782Z,20.46
2019-04-06T01:58:51.775Z,20.47
2019-04-06T01:59:51.831Z,20.53
2019-04-06T02:00:51.770Z,20.50
2019-04-06T02:01:51.766Z,20.38
2019-04-06T02:02:51.758Z,20.43
2019-04-06T02:03:51.751Z,20.42
2019-04-06T02:04:51.746Z,20.43
2019-04-06T02:05:51.742Z,20.41
2019-04-06T02:06:51.731Z,20.46
2019-04-06T02:07:51.726Z,20.41
2019-04-06T02:08:51.717Z,20.47
2019-04-06T02:09:51.712Z,20.47
2019-04-06T02:10:51.705Z,20.46
2019-04-06T02:11:51.698Z,20.46
2019-04-06T02:12:51.695Z,20.43
2019-04-06T02:13:51.748Z,20.49
2019-04-06T02:14:51.678Z,20.43
2019-04-06T02:15:51.673Z,20.43
2019-04-06T02:16:51.688Z,20.46
2019-04-06T02:17:51.659Z,20.41
2019-04-06T02:18:51.652Z,20.47
2019-04-06T02:19:51.647Z,20.38
2019-04-06T02:20:51.638Z,20.43
2019-04-06T02:21:51.632Z,20.53
2019-04-06T02:22:51.628Z,20.42
2019-04-06T02:23:51.619Z,20.49
2019-04-06T02:24:51.614Z,20.49
2019-04-06T02:25:51.607Z,20.43
2019-04-06T02:26:51.629Z,20.39
2019-04-06T02:27:51.597Z,20.43
2019-04-06T02:28:51.591Z,20.43
2019-04-06T02:29:51.584Z,20.39
2019-04-06T02:30:51.579Z,20.41
2019-04-06T02:31:51.572Z,20.38
2019-04-06T02:32:51.628Z,20.36
2019-04-06T02:33:51.633Z,20.46
2019-04-06T02:34:51.561Z,20.43
2019-04-06T02:35:51.556Z,20.42
2019-04-06T02:36:51.551Z,20.41
2019-04-06T02:37:51.541Z,20.39
2019-04-06T02:38:51.536Z,20.38
2019-04-06T02:39:51.631Z,20.43
2019-04-06T02:40:51.522Z,20.41
2019-04-06T02:41:51.520Z,20.35
2019-04-06T02:42:51.512Z,20.43
2019-04-06T02:43:51.601Z,20.46
2019-04-06T02:44:51.509Z,20.43
2019-04-06T02:45:51.509Z,20.39
2019-04-06T02:46:51.485Z,20.41
2019-04-06T02:47:51.492Z,20.31
2019-04-06T02:48:51.472Z,20.38
2019-04-06T02:49:51.465Z,20.38
2019-04-06T02:50:51.458Z,20.41
2019-04-06T02:51:51.454Z,20.41
2019-04-06T02:52:51.443Z,20.38
2019-04-06T02:53:51.441Z,20.41
2019-04-06T02:54:51.435Z,20.46
2019-04-06T02:55:51.434Z,20.43
2019-04-06T02:56:51.419Z,20.41
2019-04-06T02:57:51.424Z,20.36
2019-04-06T02:58:51.409Z,20.39
2019-04-06T02:59:51.402Z,20.38
2019-04-06T03:00:51.402Z,20.47
2019-04-06T03:01:51.386Z,20.33
2019-04-06T03:02:51.395Z,20.35
2019-04-06T03:03:51.372Z,20.54
2019-04-06T03:04:51.364Z,20.39
2019-04-06T03:05:51.361Z,20.38
2019-04-06T03:06:51.354Z,20.35
2019-04-06T03:07:51.346Z,20.32
2019-04-06T03:08:51.410Z,20.33
2019-04-06T03:09:51.336Z,20.33
2019-04-06T03:10:51.326Z,20.43
2019-04-06T03:11:51.318Z,20.39
2019-04-06T03:12:51.448Z,20.35
2019-04-06T03:13:51.305Z,20.43
2019-04-06T03:14:51.557Z,20.35
2019-04-06T03:15:51.292Z,20.38
2019-04-06T03:16:51.285Z,20.38
2019-04-06T03:17:51.296Z,20.43
2019-04-06T03:18:51.269Z,20.38
2019-04-06T03:19:51.262Z,20.38
2019-04-06T03:20:51.269Z,20.41
2019-04-06T03:21:51.250Z,20.38
2019-04-06T03:22:51.244Z,20.35
2019-04-06T03:23:52.242Z,20.33
2019-04-06T03:24:51.336Z,20.32
2019-04-06T03:25:51.224Z,20.39
2019-04-06T03:27:00.726Z,20.35
2019-04-06T03:28:18.521Z,20.35
2019-04-06T03:29:18.494Z,20.43
2019-04-06T03:30:18.485Z,20.36
2019-04-06T03:31:23.602Z,20.41
2019-04-06T03:32:45.690Z,20.41
2019-04-06T03:33:45.684Z,20.39
2019-04-06T03:34:45.823Z,20.36
2019-04-06T03:35:48.541Z,20.28
2019-04-06T03:36:45.681Z,20.41
2019-04-06T03:37:45.672Z,20.32
2019-04-06T03:38:45.752Z,20.42
2019-04-06T03:39:45.869Z,20.36
2019-04-06T03:40:45.654Z,20.32
2019-04-06T03:41:45.646Z,20.38
2019-04-06T03:42:45.638Z,20.33
2019-04-06T03:43:45.633Z,20.35
2019-04-06T03:44:45.626Z,20.33
2019-04-06T03:45:45.926Z,20.39
2019-04-06T03:46:45.613Z,20.41
2019-04-06T03:47:45.609Z,20.38
2019-04-06T03:48:45.629Z,20.35
2019-04-06T03:49:45.618Z,20.32
2019-04-06T03:50:45.611Z,20.31
2019-04-06T03:51:45.604Z,20.35
2019-04-06T03:52:45.597Z,20.33
2019-04-06T03:53:45.642Z,20.36
2019-04-06T03:54:45.584Z,20.35
2019-04-06T03:55:45.622Z,20.31
2019-04-06T03:56:45.571Z,20.28
2019-04-06T03:57:45.566Z,20.38
2019-04-06T03:58:45.587Z,20.33
2019-04-06T03:59:45.553Z,20.29
2019-04-06T04:00:45.545Z,20.32
2019-04-06T04:01:45.535Z,20.31
2019-04-06T04:02:45.530Z,20.39
2019-04-06T04:03:45.542Z,20.33
2019-04-06T04:04:45.516Z,20.39
2019-04-06T04:05:45.509Z,20.29
2019-04-06T04:06:45.504Z,20.33
2019-04-06T04:07:45.582Z,20.21
2019-04-06T04:08:45.531Z,20.33
2019-04-06T04:09:45.509Z,20.36
2019-04-06T04:10:47.313Z,20.29
2019-04-06T04:11:45.510Z,20.26
2019-04-06T04:12:45.648Z,20.28
2019-04-06T04:13:45.541Z,20.29
2019-04-06T04:14:45.475Z,20.26
2019-04-06T04:15:45.491Z,20.33
2019-04-06T04:16:45.484Z,20.33
2019-04-06T04:17:45.479Z,20.24
2019-04-06T04:18:45.682Z,20.29
2019-04-06T04:19:45.464Z,20.28
2019-04-06T04:20:45.457Z,20.23
2019-04-06T04:21:45.469Z,20.32
2019-04-06T04:22:45.455Z,20.26
2019-04-06T04:23:45.445Z,20.26
2019-04-06T04:24:45.440Z,20.23
2019-04-06T04:25:45.664Z,20.29
2019-04-06T04:26:45.431Z,20.31
2019-04-06T04:27:45.421Z,20.24
2019-04-06T04:28:45.409Z,20.31
2019-04-06T04:29:45.411Z,20.32
2019-04-06T04:30:45.397Z,20.26
2019-04-06T04:31:45.391Z,20.24
2019-04-06T04:32:45.518Z,20.29
2019-04-06T04:33:45.383Z,20.29
2019-04-06T04:34:45.399Z,20.26
2019-04-06T04:35:45.389Z,20.26
2019-04-06T04:36:45.496Z,20.32
2019-04-06T04:37:45.372Z,20.31
2019-04-06T04:38:45.572Z,20.36
2019-04-06T04:39:45.360Z,20.24
2019-04-06T04:40:45.405Z,20.26
2019-04-06T04:41:45.346Z,20.24
2019-04-06T04:42:45.417Z,20.21
2019-04-06T04:43:45.350Z,20.28
2019-04-06T04:44:45.323Z,20.29
2019-04-06T04:45:45.333Z,20.29
2019-04-06T04:46:45.364Z,20.21
2019-04-06T04:47:45.314Z,20.28
2019-04-06T04:48:45.310Z,20.26
2019-04-06T04:49:45.305Z,20.21
2019-04-06T04:50:45.300Z,20.20
2019-04-06T04:51:45.355Z,20.28
2019-04-06T04:52:45.300Z,20.32
2019-04-06T04:53:45.292Z,20.26
2019-04-06T04:54:45.285Z,20.29
2019-04-06T04:55:45.278Z,20.23
2019-04-06T04:56:45.272Z,20.23
2019-04-06T04:57:45.734Z,20.26
2019-04-06T04:58:45.258Z,20.32
2019-04-06T04:59:45.339Z,20.31
2019-04-06T05:00:45.242Z,20.28
2019-04-06T05:01:45.233Z,20.32
2019-04-06T05:02:45.246Z,20.29
2019-04-06T05:03:45.565Z,20.26
2019-04-06T05:04:45.232Z,20.20
2019-04-06T05:05:45.226Z,20.39
2019-04-06T05:06:45.462Z,20.32
2019-04-06T05:07:45.210Z,20.32
2019-04-06T05:08:45.204Z,20.31
2019-04-06T05:09:45.197Z,20.23
2019-04-06T05:10:45.191Z,20.29
2019-04-06T05:11:45.185Z,20.32
2019-04-06T05:12:45.177Z,20.36
2019-04-06T05:13:45.170Z,20.33
2019-04-06T05:14:45.216Z,20.31
2019-04-06T05:15:45.164Z,20.39
2019-04-06T05:16:45.159Z,20.33
2019-04-06T05:17:45.154Z,20.29
2019-04-06T05:18:45.147Z,20.28
2019-04-06T05:19:45.139Z,20.31
2019-04-06T05:20:45.133Z,20.39
2019-04-06T05:21:45.126Z,20.39
2019-04-06T05:22:45.125Z,20.39
2019-04-06T05:23:45.111Z,20.35
2019-04-06T05:24:45.106Z,20.33
2019-04-06T05:25:45.125Z,20.43
2019-04-06T05:26:45.117Z,20.38
2019-04-06T05:27:51.736Z,20.42
2019-04-06T05:29:12.355Z,20.39
2019-04-06T05:30:12.380Z,20.47
2019-04-06T05:31:12.339Z,20.47
2019-04-06T05:32:12.345Z,20.46
2019-04-06T05:33:12.528Z,20.50
2019-04-06T05:34:12.338Z,20.42
2019-04-06T05:35:12.328Z,20.58
2019-04-06T05:36:12.321Z,20.57
2019-04-06T05:37:12.314Z,20.47
2019-04-06T05:38:12.308Z,20.51
2019-04-06T05:39:12.318Z,20.63
2019-04-06T05:40:12.296Z,20.65
2019-04-06T05:41:12.291Z,20.66
2019-04-06T05:42:12.285Z,20.58
2019-04-06T05:43:12.275Z,20.57
2019-04-06T05:44:12.268Z,20.57
2019-04-06T05:45:12.262Z,20.68
2019-04-06T05:46:12.258Z,20.66
2019-04-06T05:47:12.274Z,20.68
2019-04-06T05:48:12.361Z,20.73
2019-04-06T05:49:12.260Z,20.81
2019-04-06T05:50:12.256Z,20.78
2019-04-06T05:51:12.248Z,20.76
2019-04-06T05:52:12.240Z,20.78
2019-04-06T05:53:12.248Z,20.81
2019-04-06T05:54:12.228Z,20.84
2019-04-06T05:55:12.222Z,20.79
2019-04-06T05:56:12.214Z,20.76
2019-04-06T05:57:12.229Z,20.87
2019-04-06T05:58:12.223Z,20.93
2019-04-06T05:59:12.216Z,20.84
2019-04-06T06:00:12.272Z,20.86
2019-04-06T06:01:12.221Z,20.88
2019-04-06T06:02:12.218Z,20.88
2019-04-06T06:03:12.208Z,20.93
2019-04-06T06:04:12.202Z,20.98
2019-04-06T06:05:12.351Z,21.03
2019-04-06T06:06:12.863Z,21.09
2019-04-06T06:07:12.185Z,21.08
2019-04-06T06:08:12.369Z,21.12
2019-04-06T06:09:12.213Z,21.12
2019-04-06T06:10:12.198Z,21.19
2019-04-06T06:11:12.189Z,21.25
2019-04-06T06:12:12.181Z,21.27
2019-04-06T06:13:12.174Z,21.28
2019-04-06T06:14:12.362Z,21.17
2019-04-06T06:15:12.158Z,21.19
2019-04-06T06:16:12.340Z,21.31
2019-04-06T06:17:14.266Z,21.32
2019-04-06T06:18:12.139Z,21.29
2019-04-06T06:19:12.131Z,21.32
2019-04-06T06:20:12.124Z,21.31
2019-04-06T06:21:12.253Z,21.28
2019-04-06T06:22:12.110Z,21.37
2019-04-06T06:23:12.103Z,21.47
2019-04-06T06:24:12.094Z,21.44
2019-04-06T06:25:12.104Z,21.49
2019-04-06T06:26:12.085Z,21.53
2019-04-06T06:27:12.071Z,21.49
2019-04-06T06:28:14.979Z,21.52
2019-04-06T06:29:12.060Z,21.47
2019-04-06T06:30:12.052Z,21.58
2019-04-06T06:31:12.045Z,21.46
2019-04-06T06:32:12.037Z,21.43
2019-04-06T06:33:12.188Z,21.46
2019-04-06T06:34:12.047Z,21.52
2019-04-06T06:35:12.040Z,21.56
2019-04-06T06:36:12.033Z,21.58
2019-04-06T06:37:12.030Z,21.54
2019-04-06T06:38:12.021Z,21.58
2019-04-06T06:39:12.012Z,21.65
2019-04-06T06:40:12.252Z,21.67
2019-04-06T06:41:12.018Z,21.69
2019-04-06T06:42:12.017Z,21.58
2019-04-06T06:43:12.005Z,21.64
2019-04-06T06:44:11.997Z,21.67
2019-04-06T06:45:11.989Z,21.67
2019-04-06T06:46:11.984Z,21.79
2019-04-06T06:47:12.139Z,21.64
2019-04-06T06:48:11.970Z,21.79
2019-04-06T06:49:12.139Z,21.82
2019-04-06T06:50:12.038Z,21.79
2019-04-06T06:51:11.982Z,21.77
2019-04-06T06:52:11.948Z,21.77
2019-04-06T06:53:11.941Z,21.83
2019-04-06T06:54:12.116Z,21.84
2019-04-06T06:55:11.925Z,21.87
2019-04-06T06:56:12.206Z,21.91
2019-04-06T06:57:11.980Z,21.91
2019-04-06T06:58:11.988Z,22.04
2019-04-06T06:59:11.947Z,22.01
2019-04-06T07:00:11.960Z,21.99
2019-04-06T07:01:11.955Z,22.11
2019-04-06T07:02:11.945Z,22.13
2019-04-06T07:03:11.940Z,22.06
2019-04-06T07:04:11.932Z,22.06
2019-04-06T07:05:11.928Z,22.06
2019-04-06T07:06:11.927Z,21.97
2019-04-06T07:07:11.928Z,21.97
2019-04-06T07:08:11.916Z,22.08
2019-04-06T07:09:11.920Z,22.09
2019-04-06T07:10:12.023Z,22.16
2019-04-06T07:11:11.892Z,22.11
2019-04-06T07:12:11.989Z,22.20
2019-04-06T07:13:11.911Z,22.05
2019-04-06T07:14:11.899Z,22.09
2019-04-06T07:15:11.873Z,22.14
2019-04-06T07:16:11.869Z,22.09
2019-04-06T07:17:11.884Z,22.09
2019-04-06T07:18:12.002Z,22.06
2019-04-06T07:19:11.870Z,22.08
2019-04-06T07:20:11.863Z,22.01
2019-04-06T07:21:11.859Z,22.06
2019-04-06T07:22:11.849Z,22.09
2019-04-06T07:23:11.846Z,22.13
2019-04-06T07:24:11.835Z,22.11
2019-04-06T07:25:11.834Z,22.08
2019-04-06T07:26:11.824Z,22.06
2019-04-06T07:27:11.864Z,22.11
2019-04-06T07:28:11.811Z,22.09
2019-04-06T07:29:11.802Z,21.97
2019-04-06T07:30:11.798Z,21.98
2019-04-06T07:31:11.814Z,21.90
2019-04-06T07:32:11.807Z,21.91
2019-04-06T07:33:11.802Z,21.84
2019-04-06T07:34:11.798Z,21.91
2019-04-06T07:35:12.015Z,21.93
2019-04-06T07:36:11.787Z,21.98
2019-04-06T07:37:11.782Z,21.82
2019-04-06T07:38:11.773Z,21.86
2019-04-06T07:39:11.766Z,21.86
2019-04-06T07:40:11.764Z,21.90
2019-04-06T07:41:11.942Z,21.90
2019-04-06T07:42:11.748Z,21.86
2019-04-06T07:43:11.740Z,21.87
2019-04-06T07:44:11.735Z,21.90
2019-04-06T07:45:11.732Z,21.98
2019-04-06T07:46:11.921Z,21.95
2019-04-06T07:47:11.770Z,22.06
2019-04-06T07:48:11.708Z,21.99
2019-04-06T07:49:11.703Z,21.95
2019-04-06T07:50:11.695Z,22.08
2019-04-06T07:51:11.689Z,22.06
2019-04-06T07:52:11.682Z,22.01
2019-04-06T07:53:11.678Z,22.19
2019-04-06T07:54:11.671Z,22.11
2019-04-06T07:55:11.664Z,22.11
2019-04-06T07:56:11.664Z,22.11
2019-04-06T07:57:11.651Z,22.06
2019-04-06T07:58:11.695Z,22.06
2019-04-06T07:59:11.640Z,22.19
2019-04-06T08:00:11.630Z,22.20
2019-04-06T08:01:11.624Z,22.45
2019-04-06T08:02:11.626Z,22.53
2019-04-06T08:03:11.612Z,22.75
2019-04-06T08:04:11.608Z,22.90
2019-04-06T08:05:11.601Z,23.05
2019-04-06T08:06:11.731Z,23.16
2019-04-06T08:07:11.585Z,23.30
2019-04-06T08:08:11.580Z,23.39
2019-04-06T08:09:11.571Z,23.53
2019-04-06T08:10:11.565Z,23.82
2019-04-06T08:11:11.671Z,24.08
2019-04-06T08:12:11.557Z,24.18
2019-04-06T08:13:11.544Z,24.57
2019-04-06T08:14:11.537Z,24.82
2019-04-06T08:15:11.533Z,25.31
2019-04-06T08:16:11.525Z,25.64
2019-04-06T08:17:11.521Z,26.01
2019-04-06T08:18:11.510Z,26.28
2019-04-06T08:19:11.504Z,26.42
2019-04-06T08:20:11.772Z,26.72
2019-04-06T08:21:11.490Z,27.14
2019-04-06T08:22:11.485Z,27.12
2019-04-06T08:23:11.477Z,27.04
2019-04-06T08:24:11.472Z,27.32
2019-04-06T08:25:11.550Z,27.47
2019-04-06T08:26:11.633Z,27.41
2019-04-06T08:27:11.457Z,27.46
2019-04-06T08:28:11.449Z,27.47
2019-04-06T08:29:11.440Z,27.66
2019-04-06T08:30:11.434Z,27.80
2019-04-06T08:31:11.428Z,28.17
2019-04-06T08:32:11.422Z,28.33
2019-04-06T08:33:11.431Z,28.56
2019-04-06T08:34:13.460Z,28.34
2019-04-06T08:35:11.408Z,28.29
2019-04-06T08:36:11.610Z,27.95
2019-04-06T08:37:11.387Z,27.86
2019-04-06T08:38:11.655Z,27.66
2019-04-06T08:39:11.374Z,27.89
2019-04-06T08:40:11.368Z,28.26
2019-04-06T08:41:11.368Z,28.70
2019-04-06T08:42:11.371Z,28.99
2019-04-06T08:43:11.345Z,29.38
2019-04-06T08:44:11.341Z,29.70
2019-04-06T08:45:39.111Z,29.98
2019-04-06T08:46:39.108Z,30.23
2019-04-06T08:47:39.383Z,30.42
2019-04-06T08:48:39.091Z,30.68
2019-04-06T08:49:39.091Z,30.90
2019-04-06T08:50:39.080Z,31.01
2019-04-06T08:51:39.073Z,31.25
2019-04-06T08:52:39.072Z,31.34
2019-04-06T08:53:39.061Z,31.46
2019-04-06T08:54:39.054Z,31.57
2019-04-06T08:55:39.045Z,31.72
2019-04-06T08:56:39.045Z,31.72
2019-04-06T08:57:39.113Z,31.84
2019-04-06T08:58:39.028Z,31.98
2019-04-06T09:02:06.737Z,31.90
2019-04-06T09:03:06.732Z,31.76
2019-04-06T09:04:06.921Z,31.66
2019-04-06T09:05:06.722Z,31.57
2019-04-06T09:06:06.813Z,31.50
2019-04-06T09:07:06.708Z,31.26
2019-04-06T09:08:06.791Z,31.08
2019-04-06T09:09:06.698Z,30.91
2019-04-06T09:10:06.709Z,30.72
2019-04-06T09:11:06.684Z,30.27
2019-04-06T09:12:06.679Z,29.97
2019-04-06T09:13:06.677Z,29.82
2019-04-06T09:14:06.666Z,29.48
2019-04-06T09:15:06.724Z,29.14
2019-04-06T09:16:06.678Z,28.98
2019-04-06T09:17:06.693Z,28.76
2019-04-06T09:18:06.818Z,28.55
2019-04-06T09:19:06.730Z,28.33
2019-04-06T09:20:06.686Z,28.18
2019-04-06T09:21:06.673Z,27.92
2019-04-06T09:22:06.663Z,27.83
2019-04-06T09:23:06.657Z,27.68
2019-04-06T09:24:06.701Z,27.56
2019-04-06T09:25:06.642Z,27.41
2019-04-06T09:26:06.641Z,27.24
2019-04-06T09:27:06.635Z,27.09
2019-04-06T09:28:06.878Z,27.09
2019-04-06T09:29:06.623Z,27.02
2019-04-06T09:30:06.613Z,27.04
2019-04-06T09:31:06.608Z,27.19
2019-04-06T09:32:06.602Z,27.27
2019-04-06T09:33:06.597Z,27.54
2019-04-06T09:34:06.615Z,27.66
2019-04-06T09:35:06.589Z,27.84
2019-04-06T09:36:06.580Z,28.14
2019-04-06T09:37:06.574Z,28.61
2019-04-06T09:38:06.569Z,28.81
2019-04-06T09:39:06.563Z,29.14
2019-04-06T09:40:06.556Z,29.44
2019-04-06T09:41:06.579Z,29.85
2019-04-06T09:42:06.541Z,30.01
2019-04-06T09:44:06.528Z,30.69
2019-04-06T09:45:06.525Z,30.82
2019-04-06T09:46:06.524Z,31.06
2019-04-06T09:47:06.512Z,31.17
2019-04-06T09:48:06.505Z,31.38
2019-04-06T09:49:06.503Z,31.50
2019-04-06T09:50:06.495Z,31.72
2019-04-06T09:51:06.488Z,31.88
2019-04-06T09:52:06.483Z,32.00
2019-04-06T09:53:06.478Z,32.06
2019-04-06T09:54:07.629Z,32.13
2019-04-06T09:55:06.481Z,32.31
2019-04-06T09:56:06.476Z,32.36
2019-04-06T09:57:06.469Z,32.44
2019-04-06T09:58:06.461Z,32.51
2019-04-06T09:59:06.620Z,32.55
2019-04-06T10:00:06.450Z,32.57
2019-04-06T10:01:06.444Z,32.51
2019-04-06T10:02:06.437Z,32.47
2019-04-06T10:03:06.450Z,32.27
2019-04-06T10:04:06.424Z,32.21
2019-04-06T10:05:06.422Z,31.88
2019-04-06T10:06:06.664Z,31.43
2019-04-06T10:07:06.605Z,31.05
2019-04-06T10:09:06.395Z,31.20
2019-04-06T10:10:06.389Z,30.68
2019-04-06T10:11:06.384Z,30.56
2019-04-06T10:12:06.544Z,30.63
2019-04-06T10:13:06.444Z,30.07
2019-04-06T10:14:06.437Z,29.80
2019-04-06T10:15:06.372Z,29.71
2019-04-06T10:16:06.367Z,29.42
2019-04-06T10:17:06.360Z,29.57
2019-04-06T10:18:06.354Z,29.63
2019-04-06T10:19:06.589Z,29.45
2019-04-06T10:20:06.340Z,29.25
2019-04-06T10:21:06.498Z,29.64
2019-04-06T10:23:06.322Z,29.83
2019-04-06T10:24:06.496Z,29.52
2019-04-06T10:25:06.444Z,29.30
2019-04-06T10:26:06.307Z,29.04
2019-04-06T10:27:06.299Z,28.67
2019-04-06T10:28:06.291Z,28.30
2019-04-06T10:29:06.361Z,28.10
2019-04-06T10:30:06.280Z,27.81
2019-04-06T10:31:06.274Z,27.86
2019-04-06T10:33:06.400Z,27.39
2019-04-06T10:34:06.254Z,27.14
2019-04-06T10:35:06.246Z,27.07
2019-04-06T10:36:06.527Z,26.91
2019-04-06T10:37:06.446Z,26.83
2019-04-06T10:38:06.455Z,26.72
2019-04-06T10:39:06.223Z,26.62
2019-04-06T10:40:06.360Z,26.51
2019-04-06T10:41:06.208Z,26.38
2019-04-06T10:42:06.200Z,26.22
2019-04-06T10:43:06.283Z,26.12
2019-04-06T10:44:06.191Z,25.99
2019-04-06T10:45:06.189Z,25.95
2019-04-06T10:46:06.176Z,25.98
2019-04-06T10:47:06.172Z,25.92
2019-04-06T10:48:06.353Z,25.80
2019-04-06T10:49:06.158Z,25.79
2019-04-06T10:50:06.151Z,25.72
2019-04-06T10:51:06.149Z,25.65
2019-04-06T10:52:06.141Z,25.57
2019-04-06T10:53:06.134Z,25.58
2019-04-06T10:54:06.126Z,25.41
2019-04-06T10:55:06.138Z,25.47
2019-04-06T10:56:06.115Z,25.32
2019-04-06T10:58:06.108Z,25.35
2019-04-06T10:59:06.093Z,25.32
2019-04-06T11:00:06.485Z,25.22
2019-04-06T11:01:06.081Z,25.14
2019-04-06T11:02:06.075Z,25.16
2019-04-06T11:03:06.074Z,25.12
2019-04-06T11:04:06.066Z,25.07
2019-04-06T11:05:06.060Z,25.09
2019-04-06T11:06:06.055Z,25.04
2019-04-06T11:07:06.048Z,24.99
2019-04-06T11:08:06.040Z,25.02
2019-04-06T11:09:06.032Z,24.95
2019-04-06T11:10:06.077Z,24.98
2019-04-06T11:11:06.023Z,24.95
2019-04-06T11:12:06.019Z,25.04
2019-04-06T11:13:06.013Z,24.97
2019-04-06T11:14:06.020Z,24.89
2019-04-06T11:15:06.019Z,24.87
2019-04-06T11:16:06.008Z,24.83
2019-04-06T11:17:06.000Z,24.86
2019-04-06T11:18:05.994Z,24.84
2019-04-06T11:19:05.991Z,24.83
2019-04-06T11:20:05.981Z,24.75
2019-04-06T11:21:05.975Z,24.83
2019-04-06T11:22:05.969Z,24.80
2019-04-06T11:23:05.966Z,24.75
2019-04-06T11:24:06.219Z,24.64
2019-04-06T11:25:05.999Z,24.65
2019-04-06T11:26:06.019Z,24.67
2019-04-06T11:27:05.947Z,24.68
2019-04-06T11:29:06.222Z,24.60
2019-04-06T11:30:13.164Z,24.58
2019-04-06T11:31:33.703Z,24.55
2019-04-06T11:32:33.701Z,24.58
2019-04-06T11:33:33.693Z,24.60
2019-04-06T11:34:33.689Z,24.52
2019-04-06T11:35:33.681Z,24.49
2019-04-06T11:36:33.675Z,24.55
2019-04-06T11:37:33.668Z,24.49
2019-04-06T11:38:33.661Z,24.57
2019-04-06T11:39:33.658Z,24.52
2019-04-06T11:40:33.778Z,24.50
2019-04-06T11:41:33.643Z,24.60
2019-04-06T11:42:33.929Z,24.52
2019-04-06T11:43:33.629Z,24.45
2019-04-06T11:44:33.623Z,24.46
2019-04-06T11:45:33.616Z,24.46
2019-04-06T11:46:33.636Z,24.42
2019-04-06T11:47:33.626Z,24.45
2019-04-06T11:48:33.752Z,24.46
2019-04-06T11:49:33.797Z,24.39
2019-04-06T11:50:33.630Z,24.47
2019-04-06T11:51:33.627Z,24.37
2019-04-06T11:52:33.705Z,24.43
2019-04-06T11:53:33.613Z,24.32
2019-04-06T11:54:33.607Z,24.35
2019-04-06T11:55:33.600Z,24.24
2019-04-06T11:56:33.866Z,24.20
2019-04-06T11:57:33.583Z,24.18
2019-04-06T11:58:33.646Z,24.12
2019-04-06T11:59:33.763Z,23.99
2019-04-06T12:00:33.792Z,24.10
2019-04-06T12:01:33.683Z,24.02
2019-04-06T12:02:33.552Z,24.05
2019-04-06T12:03:33.553Z,24.08
2019-04-06T12:04:33.541Z,23.92
2019-04-06T12:05:33.535Z,23.93
2019-04-06T12:06:33.635Z,23.93
2019-04-06T12:07:33.525Z,23.87
2019-04-06T12:08:33.635Z,23.83
2019-04-06T12:09:33.693Z,23.78
2019-04-06T12:10:33.506Z,23.82
2019-04-06T12:11:33.498Z,23.82
2019-04-06T12:12:33.758Z,23.83
2019-04-06T12:13:33.511Z,23.74
2019-04-06T12:14:33.513Z,23.79
2019-04-06T12:15:33.696Z,23.71
2019-04-06T12:16:33.493Z,23.75
2019-04-06T12:17:33.493Z,23.75
2019-04-06T12:18:33.818Z,23.78
2019-04-06T12:19:33.477Z,23.72
2019-04-06T12:20:33.468Z,23.71
2019-04-06T12:21:33.463Z,23.71
2019-04-06T12:22:33.748Z,23.64
2019-04-06T12:23:33.839Z,23.68
2019-04-06T12:24:33.730Z,23.75
2019-04-06T12:25:33.637Z,23.67
2019-04-06T12:26:33.452Z,23.62
2019-04-06T12:27:33.445Z,23.52
2019-04-06T12:29:01.163Z,23.57
2019-04-06T12:30:01.161Z,23.50
2019-04-06T12:31:01.165Z,23.49
2019-04-06T12:32:01.147Z,23.52
2019-04-06T12:33:01.144Z,23.47
2019-04-06T12:34:01.139Z,23.46
2019-04-06T12:35:01.131Z,23.38
2019-04-06T12:36:01.124Z,23.41
2019-04-06T12:37:01.121Z,23.34
2019-04-06T12:38:01.111Z,23.37
2019-04-06T12:39:01.105Z,23.37
2019-04-06T12:40:01.278Z,23.30
2019-04-06T12:41:01.090Z,23.34
2019-04-06T12:42:01.085Z,23.38
2019-04-06T12:43:01.118Z,23.34
2019-04-06T12:44:01.072Z,23.35
2019-04-06T12:45:01.065Z,23.38
2019-04-06T12:46:01.088Z,23.34
2019-04-06T12:47:01.059Z,23.37
2019-04-06T12:48:01.045Z,23.39
2019-04-06T12:49:01.071Z,23.45
2019-04-06T12:50:01.034Z,23.39
2019-04-06T12:51:01.027Z,23.39
2019-04-06T12:52:01.019Z,23.49
2019-04-06T12:53:01.218Z,23.39
2019-04-06T12:54:01.156Z,23.34
2019-04-06T12:55:01.548Z,23.31
2019-04-06T12:56:01.152Z,23.35
2019-04-06T12:57:00.988Z,23.31
2019-04-06T12:58:00.982Z,23.37
2019-04-06T12:59:00.977Z,23.31
2019-04-06T13:00:00.973Z,23.35
2019-04-06T13:01:00.966Z,23.37
2019-04-06T13:02:00.956Z,23.32
2019-04-06T13:03:00.951Z,23.32
2019-04-06T13:04:00.949Z,23.23